createdAt,value
2023-04-26T00:00:47.390Z,9.87
2023-04-26T00:01:47.367Z,9.88
2023-04-26T00:02:47.477Z,9.89
2023-04-26T00:05:47.462Z,9.88
2023-04-26T00:08:47.417Z,9.87
2023-04-26T00:09:47.436Z,9.91
2023-04-26T00:10:47.435Z,9.86
2023-04-26T00:13:47.411Z,9.85
2023-04-26T00:14:47.432Z,9.84
2023-04-26T00:15:47.431Z,9.69
2023-04-26T00:16:47.501Z,9.65
2023-04-26T00:17:47.550Z,9.66
2023-04-26T00:19:47.466Z,9.65
2023-04-26T00:20:47.504Z,9.73
2023-04-26T00:21:47.411Z,9.77
2023-04-26T00:22:47.453Z,9.80
2023-04-26T00:23:47.407Z,9.84
2023-04-26T00:24:47.509Z,9.86
2023-04-26T00:25:47.463Z,9.87
2023-04-26T00:26:47.420Z,9.86
2023-04-26T00:27:47.504Z,9.91
2023-04-26T00:28:47.452Z,9.94
2023-04-26T00:29:47.444Z,9.98
2023-04-26T00:30:47.491Z,10.01
2023-04-26T00:32:47.577Z,10.00
2023-04-26T00:33:47.488Z,9.98
2023-04-26T00:34:47.459Z,10.01
2023-04-26T00:35:47.486Z,10.02
2023-04-26T00:36:47.511Z,10.04
2023-04-26T00:37:47.456Z,9.98
2023-04-26T00:38:47.504Z,9.86
2023-04-26T00:39:47.506Z,9.75
2023-04-26T00:40:47.481Z,9.72
2023-04-26T00:41:47.497Z,9.66
2023-04-26T00:42:47.476Z,9.70
2023-04-26T00:43:47.499Z,9.63
2023-04-26T00:44:47.512Z,9.60
2023-04-26T00:45:47.504Z,9.58
2023-04-26T00:46:47.517Z,9.59
2023-04-26T00:48:47.506Z,9.61
2023-04-26T00:49:47.502Z,9.65
2023-04-26T00:50:47.479Z,9.62
2023-04-26T00:51:47.505Z,9.66
2023-04-26T00:52:47.499Z,9.69
2023-04-26T00:53:47.526Z,9.72
2023-04-26T00:54:47.537Z,9.75
2023-04-26T00:55:47.518Z,9.78
2023-04-26T00:56:47.542Z,9.83
2023-04-26T00:58:47.513Z,9.85
2023-04-26T00:59:47.569Z,9.86
2023-04-26T01:00:47.636Z,9.88
2023-04-26T01:03:47.819Z,9.84
2023-04-26T01:05:47.559Z,9.86
2023-04-26T01:06:47.507Z,9.88
2023-04-26T01:07:47.529Z,9.91
2023-04-26T01:08:47.524Z,9.93
2023-04-26T01:09:47.592Z,9.94
2023-04-26T01:10:47.595Z,9.92
2023-04-26T01:11:47.557Z,9.94
2023-04-26T01:12:47.576Z,9.95
2023-04-26T01:13:47.547Z,9.97
2023-04-26T01:14:47.560Z,9.96
2023-04-26T01:15:47.612Z,9.94
2023-04-26T01:16:47.619Z,9.93
2023-04-26T01:18:47.587Z,9.91
2023-04-26T01:19:47.632Z,9.92
2023-04-26T01:20:47.596Z,9.88
2023-04-26T01:21:47.559Z,9.84
2023-04-26T01:22:47.599Z,9.83
2023-04-26T01:23:47.615Z,9.74
2023-04-26T01:24:47.569Z,9.68
2023-04-26T01:26:47.637Z,9.70
2023-04-26T01:27:47.613Z,9.74
2023-04-26T01:28:47.631Z,9.79
2023-04-26T01:29:47.620Z,9.83
2023-04-26T01:30:47.674Z,9.88
2023-04-26T01:31:47.630Z,9.90
2023-04-26T01:32:47.675Z,9.93
2023-04-26T01:33:47.640Z,9.91
2023-04-26T01:34:47.611Z,9.76
2023-04-26T01:35:47.617Z,9.61
2023-04-26T01:36:47.593Z,9.50
2023-04-26T01:37:47.630Z,9.47
2023-04-26T01:38:47.640Z,9.49
2023-04-26T01:39:47.642Z,9.50
2023-04-26T01:40:47.676Z,9.43
2023-04-26T01:41:47.636Z,9.44
2023-04-26T01:43:47.692Z,9.35
2023-04-26T01:44:47.677Z,9.33
2023-04-26T01:45:47.649Z,9.28
2023-04-26T01:47:47.734Z,9.23
2023-04-26T01:48:47.627Z,9.12
2023-04-26T01:49:47.720Z,9.13
2023-04-26T01:50:47.634Z,9.20
2023-04-26T01:51:47.694Z,9.26
2023-04-26T01:52:47.687Z,9.34
2023-04-26T01:53:47.715Z,9.40
2023-04-26T01:54:47.718Z,9.45
2023-04-26T01:55:47.643Z,9.44
2023-04-26T01:57:47.714Z,9.45
2023-04-26T01:58:47.708Z,9.43
2023-04-26T01:59:47.683Z,9.42
2023-04-26T02:00:47.691Z,9.43
2023-04-26T02:02:47.778Z,9.42
2023-04-26T02:03:47.695Z,9.40
2023-04-26T02:04:47.738Z,9.41
2023-04-26T02:05:47.681Z,9.40
2023-04-26T02:06:47.672Z,9.38
2023-04-26T02:07:47.709Z,9.36
2023-04-26T02:08:47.726Z,9.33
2023-04-26T02:09:47.724Z,9.31
2023-04-26T02:10:47.746Z,9.27
2023-04-26T02:12:47.745Z,9.26
2023-04-26T02:13:47.719Z,9.24
2023-04-26T02:14:47.700Z,9.23
2023-04-26T02:15:47.776Z,9.19
2023-04-26T02:16:47.687Z,9.17
2023-04-26T02:17:47.774Z,9.11
2023-04-26T02:18:47.716Z,9.07
2023-04-26T02:19:47.733Z,9.00
2023-04-26T02:21:47.709Z,9.01
2023-04-26T02:22:47.759Z,9.05
2023-04-26T02:23:47.715Z,9.10
2023-04-26T02:24:47.728Z,9.15
2023-04-26T02:25:47.791Z,9.20
2023-04-26T02:26:47.734Z,9.21
2023-04-26T02:27:47.749Z,9.23
2023-04-26T02:28:47.778Z,9.26
2023-04-26T02:29:47.776Z,9.27
2023-04-26T02:30:47.809Z,9.26
2023-04-26T02:31:47.796Z,9.25
2023-04-26T02:32:47.771Z,9.26
2023-04-26T02:33:47.766Z,9.23
2023-04-26T02:35:47.798Z,9.22
2023-04-26T02:36:47.816Z,9.23
2023-04-26T02:40:47.757Z,9.22
2023-04-26T02:41:47.810Z,9.20
2023-04-26T02:43:47.796Z,9.17
2023-04-26T02:44:47.835Z,9.12
2023-04-26T02:47:47.898Z,9.10
2023-04-26T02:48:47.838Z,9.11
2023-04-26T02:49:47.795Z,9.14
2023-04-26T02:51:47.833Z,9.12
2023-04-26T02:52:47.817Z,9.14
2023-04-26T02:53:47.832Z,9.12
2023-04-26T02:54:47.821Z,9.13
2023-04-26T02:55:47.863Z,9.14
2023-04-26T02:56:47.859Z,9.16
2023-04-26T02:57:47.854Z,9.17
2023-04-26T02:58:47.816Z,9.19
2023-04-26T03:00:47.916Z,9.22
2023-04-26T03:01:47.837Z,9.24
2023-04-26T03:02:47.950Z,9.25
2023-04-26T03:03:47.961Z,9.28
2023-04-26T03:05:47.871Z,9.26
2023-04-26T03:07:47.839Z,9.22
2023-04-26T03:08:47.854Z,9.20
2023-04-26T03:09:47.848Z,9.21
2023-04-26T03:11:50.023Z,9.24
2023-04-26T03:12:47.904Z,9.26
2023-04-26T03:14:47.851Z,9.24
2023-04-26T03:15:47.827Z,9.22
2023-04-26T03:16:47.985Z,9.21
2023-04-26T03:17:47.915Z,9.20
2023-04-26T03:18:47.910Z,9.21
2023-04-26T03:19:47.861Z,9.19
2023-04-26T03:21:47.905Z,9.21
2023-04-26T03:22:47.995Z,9.23
2023-04-26T03:23:47.934Z,9.26
2023-04-26T03:24:47.882Z,9.27
2023-04-26T03:25:47.867Z,9.26
2023-04-26T03:26:47.914Z,9.27
2023-04-26T03:27:47.876Z,9.29
2023-04-26T03:29:47.952Z,9.32
2023-04-26T03:30:47.999Z,9.35
2023-04-26T03:31:47.930Z,9.36
2023-04-26T03:32:48.000Z,9.37
2023-04-26T03:34:47.971Z,9.38
2023-04-26T03:36:48.049Z,9.37
2023-04-26T03:38:47.939Z,9.38
2023-04-26T03:40:47.927Z,9.35
2023-04-26T03:42:47.945Z,9.33
2023-04-26T03:43:47.946Z,9.32
2023-04-26T03:45:47.968Z,9.33
2023-04-26T03:46:48.022Z,9.34
2023-04-26T03:47:47.934Z,9.36
2023-04-26T03:49:47.965Z,9.37
2023-04-26T03:51:47.982Z,9.38
2023-04-26T03:52:47.991Z,9.37
2023-04-26T03:54:47.952Z,9.38
2023-04-26T03:55:47.984Z,9.34
2023-04-26T03:56:47.931Z,9.32
2023-04-26T03:57:47.983Z,9.27
2023-04-26T03:58:47.976Z,9.25
2023-04-26T04:00:48.015Z,9.24
2023-04-26T04:01:47.987Z,9.22
2023-04-26T04:02:48.148Z,9.19
2023-04-26T04:03:48.137Z,9.17
2023-04-26T04:05:48.030Z,9.14
2023-04-26T04:06:48.057Z,9.12
2023-04-26T04:07:48.002Z,9.11
2023-04-26T04:08:48.042Z,9.09
2023-04-26T04:09:47.972Z,9.06
2023-04-26T04:10:48.041Z,9.07
2023-04-26T04:11:48.000Z,9.08
2023-04-26T04:12:48.031Z,9.07
2023-04-26T04:14:48.023Z,9.09
2023-04-26T04:15:48.072Z,9.10
2023-04-26T04:16:48.022Z,9.12
2023-04-26T04:19:48.043Z,9.11
2023-04-26T04:20:48.028Z,9.12
2023-04-26T04:22:48.009Z,9.11
2023-04-26T04:23:48.077Z,9.09
2023-04-26T04:24:48.100Z,9.06
2023-04-26T04:25:47.994Z,8.93
2023-04-26T04:26:48.048Z,8.84
2023-04-26T04:27:48.044Z,8.81
2023-04-26T04:28:48.097Z,8.80
2023-04-26T04:29:48.090Z,8.83
2023-04-26T04:30:48.052Z,8.85
2023-04-26T04:31:48.073Z,8.84
2023-04-26T04:32:48.130Z,8.86
2023-04-26T04:33:48.054Z,8.89
2023-04-26T04:34:49.583Z,8.90
2023-04-26T04:35:48.069Z,8.93
2023-04-26T04:36:48.074Z,8.89
2023-04-26T04:37:48.036Z,8.84
2023-04-26T04:38:48.071Z,8.82
2023-04-26T04:39:48.054Z,8.74
2023-04-26T04:40:48.104Z,8.58
2023-04-26T04:41:48.230Z,8.45
2023-04-26T04:42:48.134Z,8.30
2023-04-26T04:43:48.058Z,8.21
2023-04-26T04:44:48.118Z,8.20
2023-04-26T04:45:48.089Z,8.21
2023-04-26T04:46:48.076Z,8.28
2023-04-26T04:47:48.124Z,8.27
2023-04-26T04:48:48.086Z,8.25
2023-04-26T04:49:48.163Z,8.29
2023-04-26T04:50:48.056Z,8.38
2023-04-26T04:52:48.155Z,8.42
2023-04-26T04:53:48.077Z,8.45
2023-04-26T04:54:48.093Z,8.39
2023-04-26T04:55:48.144Z,8.38
2023-04-26T04:56:48.100Z,8.37
2023-04-26T04:57:48.120Z,8.27
2023-04-26T04:58:48.170Z,8.15
2023-04-26T04:59:48.114Z,8.02
2023-04-26T05:00:48.180Z,7.99
2023-04-26T05:01:48.251Z,8.03
2023-04-26T05:02:48.272Z,8.10
2023-04-26T05:03:48.299Z,8.13
2023-04-26T05:04:48.185Z,8.22
2023-04-26T05:05:48.166Z,8.28
2023-04-26T05:06:48.176Z,8.36
2023-04-26T05:07:48.116Z,8.34
2023-04-26T05:08:48.173Z,8.38
2023-04-26T05:09:48.177Z,8.47
2023-04-26T05:10:48.163Z,8.58
2023-04-26T05:11:48.130Z,8.68
2023-04-26T05:12:48.151Z,8.75
2023-04-26T05:13:48.938Z,8.79
2023-04-26T05:14:48.163Z,8.88
2023-04-26T05:15:48.170Z,8.92
2023-04-26T05:16:48.347Z,8.96
2023-04-26T05:17:48.206Z,9.00
2023-04-26T05:18:48.183Z,9.05
2023-04-26T05:19:48.218Z,9.08
2023-04-26T05:20:48.241Z,9.10
2023-04-26T05:21:48.177Z,9.13
2023-04-26T05:22:48.210Z,9.18
2023-04-26T05:23:48.207Z,9.22
2023-04-26T05:24:48.194Z,9.24
2023-04-26T05:25:48.149Z,9.27
2023-04-26T05:26:48.197Z,9.29
2023-04-26T05:27:48.234Z,9.31
2023-04-26T05:28:48.180Z,9.34
2023-04-26T05:29:48.198Z,9.38
2023-04-26T05:30:48.197Z,9.40
2023-04-26T05:31:48.226Z,9.45
2023-04-26T05:32:48.307Z,9.47
2023-04-26T05:33:48.191Z,9.49
2023-04-26T05:34:48.224Z,9.50
2023-04-26T05:35:48.230Z,9.49
2023-04-26T05:36:48.250Z,9.48
2023-04-26T05:37:48.241Z,9.50
2023-04-26T05:38:48.215Z,9.49
2023-04-26T05:39:48.252Z,9.50
2023-04-26T05:40:48.257Z,9.46
2023-04-26T05:42:48.251Z,9.47
2023-04-26T05:44:48.292Z,9.48
2023-04-26T05:45:48.304Z,9.42
2023-04-26T05:46:48.221Z,9.35
2023-04-26T05:47:48.281Z,9.30
2023-04-26T05:48:48.256Z,9.27
2023-04-26T05:49:48.223Z,9.23
2023-04-26T05:50:48.261Z,9.17
2023-04-26T05:51:48.296Z,9.16
2023-04-26T05:53:48.290Z,9.20
2023-04-26T05:54:48.235Z,9.24
2023-04-26T05:55:48.280Z,9.30
2023-04-26T05:56:48.225Z,9.35
2023-04-26T05:57:48.282Z,9.39
2023-04-26T05:58:48.277Z,9.42
2023-04-26T05:59:48.266Z,9.46
2023-04-26T06:00:48.333Z,9.47
2023-04-26T06:01:48.345Z,9.49
2023-04-26T06:03:48.557Z,9.47
2023-04-26T06:05:48.476Z,9.49
2023-04-26T06:06:48.320Z,9.44
2023-04-26T06:07:48.274Z,9.35
2023-04-26T06:08:48.296Z,9.26
2023-04-26T06:09:48.249Z,9.11
2023-04-26T06:10:48.307Z,9.02
2023-04-26T06:11:48.323Z,8.99
2023-04-26T06:12:48.280Z,9.03
2023-04-26T06:13:48.286Z,9.07
2023-04-26T06:14:48.312Z,9.14
2023-04-26T06:16:48.373Z,9.12
2023-04-26T06:17:48.410Z,9.19
2023-04-26T06:18:48.379Z,9.17
2023-04-26T06:19:48.371Z,9.26
2023-04-26T06:20:48.276Z,9.33
2023-04-26T06:21:48.352Z,9.45
2023-04-26T06:22:48.368Z,9.52
2023-04-26T06:23:48.297Z,9.55
2023-04-26T06:24:48.357Z,9.62
2023-04-26T06:25:48.344Z,9.71
2023-04-26T06:26:48.294Z,9.78
2023-04-26T06:27:48.375Z,9.85
2023-04-26T06:28:48.331Z,9.95
2023-04-26T06:29:48.376Z,10.04
2023-04-26T06:30:48.394Z,10.11
2023-04-26T06:31:48.364Z,10.16
2023-04-26T06:32:48.648Z,10.14
2023-04-26T06:33:48.337Z,10.11
2023-04-26T06:34:48.354Z,10.12
2023-04-26T06:35:48.325Z,10.15
2023-04-26T06:36:48.350Z,10.17
2023-04-26T06:38:48.381Z,10.19
2023-04-26T06:39:48.399Z,10.20
2023-04-26T06:40:48.369Z,10.23
2023-04-26T06:41:49.236Z,10.27
2023-04-26T06:42:48.407Z,10.32
2023-04-26T06:43:48.356Z,10.39
2023-04-26T06:44:48.348Z,10.46
2023-04-26T06:45:48.406Z,10.54
2023-04-26T06:46:48.497Z,10.60
2023-04-26T06:47:48.428Z,10.65
2023-04-26T06:48:48.405Z,10.70
2023-04-26T06:49:48.406Z,10.73
2023-04-26T06:50:48.414Z,10.77
2023-04-26T06:51:48.436Z,10.83
2023-04-26T06:52:48.393Z,10.86
2023-04-26T06:53:48.766Z,10.89
2023-04-26T06:54:56.489Z,10.92
2023-04-26T06:55:48.432Z,10.95
2023-04-26T06:56:48.417Z,10.96
2023-04-26T06:57:48.413Z,10.98
2023-04-26T06:58:48.456Z,11.00
2023-04-26T06:59:48.428Z,11.03
2023-04-26T07:00:48.448Z,11.05
2023-04-26T07:01:48.483Z,11.06
2023-04-26T07:02:48.608Z,11.10
2023-04-26T07:03:48.556Z,11.12
2023-04-26T07:04:48.598Z,11.13
2023-04-26T07:05:48.433Z,11.14
2023-04-26T07:06:48.483Z,11.15
2023-04-26T07:07:48.416Z,11.17
2023-04-26T07:08:48.434Z,11.19
2023-04-26T07:09:48.496Z,11.23
2023-04-26T07:10:48.483Z,11.25
2023-04-26T07:11:48.454Z,11.26
2023-04-26T07:13:48.437Z,11.27
2023-04-26T07:15:48.650Z,11.23
2023-04-26T07:16:48.442Z,11.18
2023-04-26T07:17:48.553Z,11.14
2023-04-26T07:19:48.496Z,11.15
2023-04-26T07:20:48.509Z,11.17
2023-04-26T07:21:48.507Z,11.18
2023-04-26T07:22:48.518Z,11.24
2023-04-26T07:23:48.460Z,11.30
2023-04-26T07:24:48.483Z,11.35
2023-04-26T07:25:48.500Z,11.39
2023-04-26T07:26:48.481Z,11.42
2023-04-26T07:27:48.489Z,11.47
2023-04-26T07:28:48.484Z,11.50
2023-04-26T07:29:48.700Z,11.48
2023-04-26T07:31:48.462Z,11.49
2023-04-26T07:32:48.575Z,11.50
2023-04-26T07:33:48.566Z,11.51
2023-04-26T07:34:48.504Z,11.54
2023-04-26T07:35:48.534Z,11.58
2023-04-26T07:36:48.549Z,11.55
2023-04-26T07:37:48.525Z,11.54
2023-04-26T07:38:48.514Z,11.52
2023-04-26T07:39:48.495Z,11.55
2023-04-26T07:40:48.543Z,11.58
2023-04-26T07:41:48.518Z,11.50
2023-04-26T07:42:48.495Z,11.41
2023-04-26T07:43:48.529Z,11.34
2023-04-26T07:44:48.521Z,11.33
2023-04-26T07:45:48.549Z,11.34
2023-04-26T07:46:48.499Z,11.41
2023-04-26T07:47:48.540Z,11.55
2023-04-26T07:48:48.527Z,11.72
2023-04-26T07:49:48.518Z,11.92
2023-04-26T07:50:48.580Z,11.97
2023-04-26T07:51:48.556Z,12.00
2023-04-26T07:52:48.528Z,12.05
2023-04-26T07:53:48.550Z,11.92
2023-04-26T07:54:48.596Z,11.91
2023-04-26T07:55:48.527Z,11.92
2023-04-26T07:56:48.547Z,12.05
2023-04-26T07:57:48.589Z,12.23
2023-04-26T07:58:48.587Z,12.38
2023-04-26T07:59:48.535Z,12.55
2023-04-26T08:00:48.537Z,12.70
2023-04-26T08:01:48.577Z,12.91
2023-04-26T08:02:48.756Z,13.03
2023-04-26T08:03:48.919Z,13.22
2023-04-26T08:04:48.979Z,13.37
2023-04-26T08:05:48.929Z,13.52
2023-04-26T08:06:48.603Z,13.59
2023-04-26T08:07:48.566Z,13.55
2023-04-26T08:08:48.595Z,13.49
2023-04-26T08:09:48.624Z,13.55
2023-04-26T08:10:48.576Z,13.59
2023-04-26T08:11:48.602Z,13.69
2023-04-26T08:12:48.560Z,13.73
2023-04-26T08:13:48.594Z,13.76
2023-04-26T08:14:48.635Z,13.99
2023-04-26T08:15:48.618Z,14.17
2023-04-26T08:16:48.623Z,14.45
2023-04-26T08:17:48.636Z,14.62
2023-04-26T08:18:48.675Z,14.92
2023-04-26T08:19:48.639Z,15.21
2023-04-26T08:20:48.651Z,15.52
2023-04-26T08:21:48.843Z,15.80
2023-04-26T08:22:48.650Z,16.13
2023-04-26T08:23:48.650Z,16.42
2023-04-26T08:24:48.676Z,16.69
2023-04-26T08:25:48.655Z,16.98
2023-04-26T08:26:48.637Z,17.22
2023-04-26T08:27:48.641Z,17.47
2023-04-26T08:28:48.673Z,17.66
2023-04-26T08:29:48.612Z,17.82
2023-04-26T08:30:48.686Z,17.91
2023-04-26T08:31:48.645Z,17.92
2023-04-26T08:32:48.693Z,17.87
2023-04-26T08:33:48.653Z,17.80
2023-04-26T08:34:48.666Z,17.71
2023-04-26T08:35:48.682Z,17.65
2023-04-26T08:36:48.698Z,17.59
2023-04-26T08:37:48.623Z,17.56
2023-04-26T08:38:48.662Z,17.61
2023-04-26T08:39:48.708Z,17.78
2023-04-26T08:40:48.658Z,17.92
2023-04-26T08:41:48.680Z,18.08
2023-04-26T08:42:48.674Z,18.16
2023-04-26T08:43:48.713Z,18.15
2023-04-26T08:44:48.685Z,18.09
2023-04-26T08:45:48.698Z,17.95
2023-04-26T08:46:48.816Z,17.84
2023-04-26T08:47:48.884Z,17.70
2023-04-26T08:48:48.691Z,17.47
2023-04-26T08:49:48.708Z,17.32
2023-04-26T08:50:48.671Z,17.17
2023-04-26T08:51:48.733Z,17.04
2023-04-26T08:52:48.743Z,16.93
2023-04-26T08:53:48.739Z,16.86
2023-04-26T08:54:48.734Z,16.81
2023-04-26T08:55:48.697Z,16.76
2023-04-26T08:56:48.743Z,16.71
2023-04-26T08:57:48.744Z,16.70
2023-04-26T08:58:48.726Z,16.71
2023-04-26T08:59:48.849Z,16.69
2023-04-26T09:00:48.699Z,16.68
2023-04-26T09:01:48.753Z,16.73
2023-04-26T09:02:48.881Z,16.89
2023-04-26T09:03:48.905Z,17.03
2023-04-26T09:04:48.788Z,17.26
2023-04-26T09:05:48.723Z,17.54
2023-04-26T09:06:48.689Z,17.83
2023-04-26T09:07:48.742Z,18.04
2023-04-26T09:08:48.708Z,18.26
2023-04-26T09:09:48.729Z,18.52
2023-04-26T09:10:48.794Z,18.83
2023-04-26T09:11:48.762Z,19.06
2023-04-26T09:12:48.778Z,19.20
2023-04-26T09:13:48.804Z,19.30
2023-04-26T09:14:48.793Z,19.31
2023-04-26T09:15:48.898Z,19.34
2023-04-26T09:16:48.754Z,19.32
2023-04-26T09:17:48.805Z,19.24
2023-04-26T09:18:48.798Z,19.30
2023-04-26T09:19:48.745Z,19.31
2023-04-26T09:20:48.765Z,19.45
2023-04-26T09:21:48.812Z,19.61
2023-04-26T09:22:48.732Z,19.69
2023-04-26T09:23:48.798Z,19.63
2023-04-26T09:24:48.774Z,19.36
2023-04-26T09:25:48.784Z,19.24
2023-04-26T09:26:48.780Z,19.14
2023-04-26T09:27:48.789Z,19.04
2023-04-26T09:28:48.830Z,19.06
2023-04-26T09:29:48.778Z,19.03
2023-04-26T09:30:48.815Z,19.09
2023-04-26T09:31:49.993Z,19.14
2023-04-26T09:32:48.826Z,18.79
2023-04-26T09:33:48.785Z,18.61
2023-04-26T09:35:48.797Z,18.65
2023-04-26T09:36:48.835Z,18.75
2023-04-26T09:37:58.454Z,18.89
2023-04-26T09:38:48.847Z,18.97
2023-04-26T09:39:48.819Z,18.99
2023-04-26T09:40:48.805Z,18.93
2023-04-26T09:41:48.858Z,18.92
2023-04-26T09:42:48.848Z,18.85
2023-04-26T09:43:48.822Z,18.84
2023-04-26T09:44:48.835Z,18.81
2023-04-26T09:45:48.830Z,18.79
2023-04-26T09:47:48.842Z,18.81
2023-04-26T09:48:48.840Z,18.83
2023-04-26T09:49:48.905Z,18.74
2023-04-26T09:50:48.847Z,18.64
2023-04-26T09:51:48.840Z,18.61
2023-04-26T09:53:48.840Z,18.64
2023-04-26T09:54:48.883Z,18.70
2023-04-26T09:55:48.860Z,18.76
2023-04-26T09:56:48.850Z,18.81
2023-04-26T09:57:48.836Z,18.86
2023-04-26T09:58:48.857Z,18.89
2023-04-26T09:59:48.882Z,18.95
2023-04-26T10:00:48.911Z,18.99
2023-04-26T10:01:48.842Z,19.06
2023-04-26T10:02:48.956Z,19.16
2023-04-26T10:03:49.144Z,19.35
2023-04-26T10:04:48.998Z,19.51
2023-04-26T10:05:48.884Z,19.73
2023-04-26T10:06:48.903Z,19.87
2023-04-26T10:07:48.937Z,20.01
2023-04-26T10:08:48.885Z,20.18
2023-04-26T10:09:48.926Z,20.37
2023-04-26T10:10:48.852Z,20.46
2023-04-26T10:11:48.924Z,20.41
2023-04-26T10:12:48.901Z,20.28
2023-04-26T10:13:48.934Z,19.88
2023-04-26T10:14:48.894Z,19.53
2023-04-26T10:15:48.939Z,19.56
2023-04-26T10:16:48.966Z,19.65
2023-04-26T10:17:50.701Z,19.77
2023-04-26T10:18:48.943Z,19.89
2023-04-26T10:19:48.906Z,19.96
2023-04-26T10:20:48.960Z,20.12
2023-04-26T10:21:48.900Z,20.19
2023-04-26T10:22:48.931Z,20.29
2023-04-26T10:23:48.937Z,20.39
2023-04-26T10:24:48.942Z,20.52
2023-04-26T10:25:48.962Z,20.61
2023-04-26T10:26:48.999Z,20.68
2023-04-26T10:27:48.926Z,20.65
2023-04-26T10:28:49.797Z,20.56
2023-04-26T10:29:48.958Z,20.50
2023-04-26T10:30:48.935Z,20.54
2023-04-26T10:31:49.001Z,20.53
2023-04-26T10:32:49.006Z,20.54
2023-04-26T10:33:49.011Z,20.56
2023-04-26T10:34:48.955Z,20.47
2023-04-26T10:35:48.951Z,20.48
2023-04-26T10:36:49.015Z,20.54
2023-04-26T10:37:49.000Z,20.61
2023-04-26T10:38:48.935Z,20.63
2023-04-26T10:39:48.980Z,20.65
2023-04-26T10:40:48.970Z,20.73
2023-04-26T10:42:49.031Z,20.77
2023-04-26T10:43:48.951Z,20.78
2023-04-26T10:44:48.979Z,20.75
2023-04-26T10:45:49.044Z,20.57
2023-04-26T10:46:49.012Z,20.37
2023-04-26T10:47:49.058Z,20.29
2023-04-26T10:49:49.032Z,20.34
2023-04-26T10:50:49.001Z,20.38
2023-04-26T10:51:49.007Z,20.37
2023-04-26T10:52:48.977Z,20.33
2023-04-26T10:53:49.059Z,20.29
2023-04-26T10:54:49.000Z,20.27
2023-04-26T10:55:49.035Z,20.29
2023-04-26T10:56:49.027Z,20.28
2023-04-26T10:59:54.551Z,20.26
2023-04-26T11:00:49.087Z,20.28
2023-04-26T11:01:49.120Z,20.18
2023-04-26T11:02:51.884Z,20.06
2023-04-26T11:03:49.176Z,20.02
2023-04-26T11:04:49.081Z,20.00
2023-04-26T11:05:49.038Z,19.96
2023-04-26T11:06:49.122Z,19.98
2023-04-26T11:07:49.057Z,20.10
2023-04-26T11:08:49.071Z,20.16
2023-04-26T11:09:49.027Z,20.25
2023-04-26T11:10:49.081Z,20.35
2023-04-26T11:11:49.063Z,20.34
2023-04-26T11:12:49.056Z,20.29
2023-04-26T11:13:49.120Z,20.25
2023-04-26T11:14:49.052Z,20.30
2023-04-26T11:15:51.267Z,20.35
2023-04-26T11:16:49.075Z,20.16
2023-04-26T11:17:49.087Z,19.90
2023-04-26T11:18:49.150Z,19.85
2023-04-26T11:19:49.114Z,19.89
2023-04-26T11:20:49.085Z,19.94
2023-04-26T11:21:49.128Z,19.95
2023-04-26T11:24:49.118Z,20.01
2023-04-26T11:25:49.083Z,19.91
2023-04-26T11:26:49.148Z,19.72
2023-04-26T11:27:49.125Z,19.65
2023-04-26T11:28:49.105Z,19.62
2023-04-26T11:29:49.098Z,19.68
2023-04-26T11:30:49.103Z,19.60
2023-04-26T11:31:49.115Z,19.61
2023-04-26T11:32:49.155Z,19.66
2023-04-26T11:33:50.787Z,19.75
2023-04-26T11:34:49.143Z,19.78
2023-04-26T11:35:49.108Z,19.81
2023-04-26T11:36:49.099Z,19.82
2023-04-26T11:37:49.127Z,19.73
2023-04-26T11:38:49.106Z,19.72
2023-04-26T11:39:49.105Z,19.75
2023-04-26T11:40:49.156Z,19.79
2023-04-26T11:41:49.136Z,19.80
2023-04-26T11:42:49.113Z,19.86
2023-04-26T11:43:49.183Z,19.89
2023-04-26T11:44:49.109Z,19.91
2023-04-26T11:45:49.132Z,19.88
2023-04-26T11:46:49.211Z,19.86
2023-04-26T11:47:49.233Z,19.85
2023-04-26T11:48:49.151Z,19.83
2023-04-26T11:50:49.178Z,19.82
2023-04-26T11:51:49.144Z,19.84
2023-04-26T11:52:49.183Z,19.86
2023-04-26T11:53:49.194Z,19.90
2023-04-26T11:54:49.190Z,19.94
2023-04-26T11:57:49.177Z,19.88
2023-04-26T11:58:49.179Z,19.85
2023-04-26T12:01:49.228Z,19.84
2023-04-26T12:02:49.465Z,19.80
2023-04-26T12:03:49.291Z,19.77
2023-04-26T12:04:49.442Z,19.75
2023-04-26T12:05:49.188Z,19.73
2023-04-26T12:06:49.194Z,19.76
2023-04-26T12:07:49.192Z,19.75
2023-04-26T12:08:49.239Z,19.73
2023-04-26T12:10:49.179Z,19.74
2023-04-26T12:11:49.203Z,19.66
2023-04-26T12:12:49.203Z,19.60
2023-04-26T12:13:49.249Z,19.47
2023-04-26T12:14:49.216Z,19.39
2023-04-26T12:15:49.217Z,19.34
2023-04-26T12:16:49.247Z,19.26
2023-04-26T12:17:49.254Z,19.22
2023-04-26T12:18:49.260Z,19.17
2023-04-26T12:19:49.269Z,19.14
2023-04-26T12:21:49.270Z,19.13
2023-04-26T12:22:49.242Z,19.14
2023-04-26T12:23:49.213Z,19.13
2023-04-26T12:24:49.266Z,19.14
2023-04-26T12:25:49.220Z,19.15
2023-04-26T12:26:49.271Z,19.13
2023-04-26T12:27:49.247Z,19.08
2023-04-26T12:28:49.257Z,18.92
2023-04-26T12:29:49.275Z,18.89
2023-04-26T12:31:49.275Z,18.90
2023-04-26T12:32:49.280Z,18.91
2023-04-26T12:33:49.243Z,18.89
2023-04-26T12:34:49.290Z,18.91
2023-04-26T12:36:49.258Z,18.92
2023-04-26T12:37:49.292Z,18.94
2023-04-26T12:38:49.306Z,18.92
2023-04-26T12:39:49.344Z,18.93
2023-04-26T12:40:49.275Z,18.95
2023-04-26T12:42:49.261Z,18.90
2023-04-26T12:43:49.299Z,18.69
2023-04-26T12:44:49.318Z,18.64
2023-04-26T12:45:49.404Z,18.61
2023-04-26T12:46:49.386Z,18.50
2023-04-26T12:47:49.371Z,18.45
2023-04-26T12:48:49.288Z,18.41
2023-04-26T12:49:49.294Z,18.34
2023-04-26T12:50:51.147Z,18.27
2023-04-26T12:51:49.351Z,18.18
2023-04-26T12:52:49.314Z,18.16
2023-04-26T12:53:49.351Z,18.13
2023-04-26T12:54:49.295Z,18.10
2023-04-26T12:55:49.302Z,18.05
2023-04-26T12:56:49.352Z,18.03
2023-04-26T12:57:49.322Z,17.94
2023-04-26T12:58:49.370Z,17.96
2023-04-26T12:59:49.362Z,17.98
2023-04-26T13:00:49.338Z,17.99
2023-04-26T13:01:49.345Z,17.93
2023-04-26T13:02:49.435Z,17.92
2023-04-26T13:03:49.691Z,17.90
2023-04-26T13:04:49.592Z,17.76
2023-04-26T13:05:49.318Z,17.70
2023-04-26T13:06:49.365Z,17.55
2023-04-26T13:07:49.396Z,17.48
2023-04-26T13:08:49.386Z,17.26
2023-04-26T13:09:49.354Z,17.21
2023-04-26T13:10:49.362Z,17.24
2023-04-26T13:11:49.395Z,17.22
2023-04-26T13:12:49.383Z,17.21
2023-04-26T13:13:49.401Z,17.35
2023-04-26T13:14:49.388Z,17.57
2023-04-26T13:15:49.380Z,17.81
2023-04-26T13:16:49.404Z,18.08
2023-04-26T13:17:49.450Z,18.23
2023-04-26T13:18:49.394Z,18.42
2023-04-26T13:19:49.395Z,18.54
2023-04-26T13:20:49.426Z,18.68
2023-04-26T13:21:49.427Z,18.75
2023-04-26T13:22:49.422Z,18.82
2023-04-26T13:23:49.383Z,18.86
2023-04-26T13:25:49.443Z,18.81
2023-04-26T13:26:49.404Z,18.73
2023-04-26T13:27:49.433Z,18.75
2023-04-26T13:29:49.422Z,18.79
2023-04-26T13:30:49.408Z,18.86
2023-04-26T13:31:49.428Z,18.90
2023-04-26T13:32:49.526Z,18.89
2023-04-26T13:33:49.430Z,18.76
2023-04-26T13:34:49.449Z,18.63
2023-04-26T13:35:49.435Z,18.53
2023-04-26T13:36:49.438Z,18.54
2023-04-26T13:37:49.422Z,18.61
2023-04-26T13:38:49.430Z,18.67
2023-04-26T13:39:49.409Z,18.54
2023-04-26T13:40:49.456Z,18.39
2023-04-26T13:41:49.409Z,18.15
2023-04-26T13:42:49.449Z,17.96
2023-04-26T13:43:49.451Z,17.81
2023-04-26T13:44:49.425Z,17.76
2023-04-26T13:45:49.542Z,17.78
2023-04-26T13:46:49.509Z,17.66
2023-04-26T13:47:49.503Z,17.63
2023-04-26T13:48:49.464Z,17.76
2023-04-26T13:49:49.469Z,17.70
2023-04-26T13:50:49.466Z,17.75
2023-04-26T13:51:49.427Z,17.87
2023-04-26T13:52:49.480Z,17.99
2023-04-26T13:53:49.443Z,18.02
2023-04-26T13:54:49.485Z,17.99
2023-04-26T13:55:49.476Z,17.97
2023-04-26T13:56:49.502Z,18.01
2023-04-26T13:57:49.450Z,18.04
2023-04-26T13:58:49.488Z,18.09
2023-04-26T13:59:49.549Z,18.20
2023-04-26T14:00:49.485Z,18.29
2023-04-26T14:01:50.384Z,18.32
2023-04-26T14:02:49.711Z,18.26
2023-04-26T14:03:49.678Z,18.14
2023-04-26T14:04:49.859Z,18.11
2023-04-26T14:05:49.468Z,18.04
2023-04-26T14:06:49.501Z,18.13
2023-04-26T14:07:49.545Z,18.08
2023-04-26T14:09:49.580Z,18.07
2023-04-26T14:10:49.499Z,18.14
2023-04-26T14:12:00.515Z,18.26
2023-04-26T14:12:49.572Z,18.41
2023-04-26T14:13:49.496Z,18.55
2023-04-26T14:14:49.481Z,18.60
2023-04-26T14:15:49.591Z,18.66
2023-04-26T14:16:49.535Z,18.64
2023-04-26T14:17:49.520Z,18.66
2023-04-26T14:18:49.512Z,18.71
2023-04-26T14:19:49.547Z,18.74
2023-04-26T14:20:49.575Z,18.67
2023-04-26T14:21:49.520Z,18.57
2023-04-26T14:22:49.516Z,18.58
2023-04-26T14:24:49.560Z,18.56
2023-04-26T14:25:49.566Z,18.50
2023-04-26T14:26:49.555Z,18.49
2023-04-26T14:27:50.021Z,18.46
2023-04-26T14:28:49.569Z,18.19
2023-04-26T14:29:49.535Z,17.92